createdAt,value
2022-09-17T00:00:00.318Z,101060
2022-09-17T00:01:00.298Z,101060
2022-09-17T00:02:00.193Z,101060
2022-09-17T00:03:00.223Z,101060
2022-09-17T00:04:00.600Z,101060
2022-09-17T00:05:00.165Z,101060
2022-09-17T00:06:02.625Z,101060
2022-09-17T00:07:00.151Z,101060
2022-09-17T00:08:00.261Z,101060
2022-09-17T00:09:00.446Z,101060
2022-09-17T00:10:00.176Z,101060
2022-09-17T00:11:08.536Z,101060
2022-09-17T00:12:00.275Z,101060
2022-09-17T00:13:00.148Z,101060
2022-09-17T00:14:01.132Z,101060
2022-09-17T00:15:00.175Z,101060
2022-09-17T00:16:00.329Z,101070
2022-09-17T00:17:02.005Z,101070
2022-09-17T00:18:00.151Z,101070
2022-09-17T00:19:00.434Z,101070
2022-09-17T00:20:00.269Z,101080
2022-09-17T00:21:00.160Z,101080
2022-09-17T00:22:00.140Z,101080
2022-09-17T00:23:00.147Z,101080
2022-09-17T00:24:01.932Z,101080
2022-09-17T00:25:00.300Z,101080
2022-09-17T00:26:03.168Z,101080
2022-09-17T00:27:00.153Z,101080
2022-09-17T00:28:00.275Z,101080
2022-09-17T00:29:00.697Z,101080
2022-09-17T00:30:00.251Z,101080
2022-09-17T00:31:00.231Z,101080
2022-09-17T00:32:00.202Z,101080
2022-09-17T00:33:00.157Z,101080
2022-09-17T00:34:01.279Z,101080
2022-09-17T00:35:00.160Z,101080
2022-09-17T00:36:00.914Z,101080
2022-09-17T00:37:00.153Z,101080
2022-09-17T00:38:00.151Z,101080
2022-09-17T00:39:00.209Z,101080
2022-09-17T00:40:00.367Z,101090
2022-09-17T00:41:00.707Z,101090
2022-09-17T00:42:00.146Z,101090
2022-09-17T00:43:00.175Z,101090
2022-09-17T00:44:10.096Z,101090
2022-09-17T00:45:00.225Z,101090
2022-09-17T00:46:00.279Z,101090
2022-09-17T00:47:00.312Z,101090
2022-09-17T00:48:01.476Z,101090
2022-09-17T00:49:10.091Z,101080
2022-09-17T00:50:02.420Z,101080
2022-09-17T00:51:00.557Z,101080
2022-09-17T00:52:00.688Z,101090
2022-09-17T00:53:03.623Z,101090
2022-09-17T00:54:01.203Z,101090
2022-09-17T00:55:02.942Z,101090
2022-09-17T00:56:02.331Z,101090
2022-09-17T00:57:00.829Z,101090
2022-09-17T00:58:01.225Z,101090
2022-09-17T00:59:00.579Z,101090
2022-09-17T01:00:00.465Z,101090
2022-09-17T01:01:00.297Z,101090
2022-09-17T01:02:00.914Z,101100
2022-09-17T01:03:00.176Z,101100
2022-09-17T01:04:00.435Z,101100
2022-09-17T01:05:00.261Z,101100
2022-09-17T01:06:07.573Z,101100
2022-09-17T01:07:07.707Z,101100
2022-09-17T01:08:06.877Z,101100
2022-09-17T01:09:01.155Z,101100
2022-09-17T01:10:00.177Z,101090
2022-09-17T01:11:05.209Z,101090
2022-09-17T01:12:10.100Z,101100
2022-09-17T01:13:08.505Z,101110
2022-09-17T01:14:10.106Z,101110
2022-09-17T01:15:10.122Z,101110
2022-09-17T01:16:07.136Z,101110
2022-09-17T01:17:10.117Z,101110
2022-09-17T01:18:00.144Z,101110
2022-09-17T01:19:00.149Z,101110
2022-09-17T01:20:10.235Z,101100
2022-09-17T01:21:10.106Z,101100
2022-09-17T01:22:06.306Z,101100
2022-09-17T01:23:10.098Z,101110
2022-09-17T01:24:10.102Z,101110
2022-09-17T01:25:00.180Z,101110
2022-09-17T01:26:00.139Z,101110
2022-09-17T01:27:07.504Z,101110
2022-09-17T01:28:10.116Z,101110
2022-09-17T01:29:10.094Z,101110
2022-09-17T01:30:10.142Z,101110
2022-09-17T01:31:03.171Z,101110
2022-09-17T01:32:10.108Z,101120
2022-09-17T01:33:07.442Z,101120
2022-09-17T01:34:00.136Z,101120
2022-09-17T01:35:03.436Z,101120
2022-09-17T01:36:10.097Z,101110
2022-09-17T01:37:00.148Z,101110
2022-09-17T01:38:08.457Z,101120
2022-09-17T01:39:04.187Z,101120
2022-09-17T01:40:10.197Z,101120
2022-09-17T01:41:04.576Z,101120
2022-09-17T01:42:04.715Z,101120
2022-09-17T01:43:05.460Z,101120
2022-09-17T01:44:05.542Z,101120
2022-09-17T01:45:03.429Z,101120
2022-09-17T01:46:10.128Z,101130
2022-09-17T01:47:10.124Z,101120
2022-09-17T01:48:00.141Z,101120
2022-09-17T01:49:03.576Z,101120
2022-09-17T01:50:03.998Z,101130
2022-09-17T01:51:05.119Z,101130
2022-09-17T01:52:00.992Z,101130
2022-09-17T01:53:02.450Z,101130
2022-09-17T01:54:05.728Z,101130
2022-09-17T01:55:03.325Z,101130
2022-09-17T01:56:00.836Z,101130
2022-09-17T01:57:03.715Z,101130
2022-09-17T01:58:04.081Z,101120
2022-09-17T01:59:04.954Z,101120
2022-09-17T02:00:02.509Z,101120
2022-09-17T02:01:02.925Z,101120
2022-09-17T02:02:05.733Z,101120
2022-09-17T02:03:03.123Z,101120
2022-09-17T02:04:02.715Z,101120
2022-09-17T02:05:04.347Z,101120
2022-09-17T02:06:04.482Z,101120
2022-09-17T02:07:04.766Z,101120
2022-09-17T02:08:06.676Z,101120
2022-09-17T02:09:01.629Z,101120
2022-09-17T02:10:04.367Z,101130
2022-09-17T02:11:08.683Z,101130
2022-09-17T02:12:01.645Z,101130
2022-09-17T02:13:06.860Z,101130
2022-09-17T02:14:06.057Z,101130
2022-09-17T02:15:01.989Z,101130
2022-09-17T02:16:04.896Z,101130
2022-09-17T02:17:04.530Z,101130
2022-09-17T02:18:05.262Z,101140
2022-09-17T02:19:03.547Z,101140
2022-09-17T02:20:00.440Z,101140
2022-09-17T02:21:05.701Z,101140
2022-09-17T02:22:00.129Z,101140
2022-09-17T02:23:03.269Z,101140
2022-09-17T02:24:07.109Z,101140
2022-09-17T02:25:03.430Z,101140
2022-09-17T02:26:05.666Z,101140
2022-09-17T02:27:03.724Z,101140
2022-09-17T02:28:03.720Z,101130
2022-09-17T02:29:06.280Z,101130
2022-09-17T02:30:00.197Z,101130
2022-09-17T02:31:00.201Z,101130
2022-09-17T02:32:00.299Z,101130
2022-09-17T02:33:01.462Z,101130
2022-09-17T02:34:01.844Z,101130
2022-09-17T02:35:00.263Z,101130
2022-09-17T02:36:00.563Z,101130
2022-09-17T02:37:00.815Z,101130
2022-09-17T02:38:00.165Z,101140
2022-09-17T02:39:00.951Z,101140
2022-09-17T02:40:00.457Z,101140
2022-09-17T02:41:10.089Z,101150
2022-09-17T02:42:10.087Z,101150
2022-09-17T02:43:10.085Z,101150
2022-09-17T02:44:07.951Z,101150
2022-09-17T02:45:10.095Z,101150
2022-09-17T02:46:03.393Z,101150
2022-09-17T02:47:00.129Z,101150
2022-09-17T02:48:01.138Z,101150
2022-09-17T02:49:01.149Z,101150
2022-09-17T02:50:01.165Z,101150
2022-09-17T02:51:10.087Z,101150
2022-09-17T02:52:03.389Z,101150
2022-09-17T02:53:10.091Z,101150
2022-09-17T02:54:07.368Z,101150
2022-09-17T02:55:07.557Z,101150
2022-09-17T02:56:01.135Z,101150
2022-09-17T02:57:10.091Z,101150
2022-09-17T02:58:00.143Z,101150
2022-09-17T02:59:06.038Z,101150
2022-09-17T03:00:06.502Z,101150
2022-09-17T03:01:03.712Z,101150
2022-09-17T03:02:02.674Z,101150
2022-09-17T03:03:10.090Z,101150
2022-09-17T03:04:01.820Z,101150
2022-09-17T03:05:00.715Z,101150
2022-09-17T03:06:00.221Z,101140
2022-09-17T03:07:04.220Z,101140
2022-09-17T03:08:00.350Z,101140
2022-09-17T03:09:00.153Z,101140
2022-09-17T03:10:00.168Z,101150
2022-09-17T03:11:00.153Z,101150
2022-09-17T03:12:00.302Z,101150
2022-09-17T03:13:00.168Z,101150
2022-09-17T03:14:00.150Z,101140
2022-09-17T03:15:00.180Z,101140
2022-09-17T03:16:00.468Z,101140
2022-09-17T03:17:00.177Z,101140
2022-09-17T03:18:00.386Z,101150
2022-09-17T03:19:00.149Z,101150
2022-09-17T03:20:00.195Z,101150
2022-09-17T03:21:00.142Z,101150
2022-09-17T03:22:00.146Z,101150
2022-09-17T03:23:00.148Z,101150
2022-09-17T03:24:00.243Z,101150
2022-09-17T03:25:00.190Z,101150
2022-09-17T03:26:00.152Z,101150
2022-09-17T03:27:00.161Z,101150
2022-09-17T03:28:00.249Z,101150
2022-09-17T03:29:00.226Z,101150
2022-09-17T03:30:00.172Z,101140
2022-09-17T03:31:00.245Z,101140
2022-09-17T03:32:00.283Z,101150
2022-09-17T03:33:00.148Z,101150
2022-09-17T03:34:00.146Z,101160
2022-09-17T03:35:00.173Z,101160
2022-09-17T03:36:00.275Z,101150
2022-09-17T03:37:00.157Z,101150
2022-09-17T03:38:00.153Z,101140
2022-09-17T03:39:00.550Z,101140
2022-09-17T03:40:00.453Z,101150
2022-09-17T03:41:02.523Z,101150
2022-09-17T03:42:00.142Z,101140
2022-09-17T03:43:00.160Z,101140
2022-09-17T03:44:00.227Z,101130
2022-09-17T03:45:00.160Z,101130
2022-09-17T03:46:00.234Z,101130
2022-09-17T03:47:00.180Z,101130
2022-09-17T03:48:00.244Z,101130
2022-09-17T03:49:00.193Z,101130
2022-09-17T03:50:00.195Z,101130
2022-09-17T03:51:00.147Z,101130
2022-09-17T03:52:00.303Z,101130
2022-09-17T03:53:00.137Z,101130
2022-09-17T03:54:00.291Z,101130
2022-09-17T03:55:00.155Z,101130
2022-09-17T03:56:01.020Z,101130
2022-09-17T03:57:00.141Z,101130
2022-09-17T03:58:00.150Z,101140
2022-09-17T03:59:00.659Z,101140
2022-09-17T04:00:00.303Z,101160
2022-09-17T04:01:00.196Z,101160
2022-09-17T04:02:00.539Z,101180
2022-09-17T04:03:00.211Z,101180
2022-09-17T04:04:00.487Z,101170
2022-09-17T04:05:00.244Z,101170
2022-09-17T04:06:00.151Z,101160
2022-09-17T04:07:00.150Z,101160
2022-09-17T04:08:00.237Z,101160
2022-09-17T04:09:00.187Z,101160
2022-09-17T04:10:00.175Z,101150
2022-09-17T04:11:00.146Z,101150
2022-09-17T04:12:00.246Z,101150
2022-09-17T04:13:00.159Z,101150
2022-09-17T04:14:00.294Z,101140
2022-09-17T04:15:00.155Z,101140
2022-09-17T04:16:00.381Z,101140
2022-09-17T04:17:00.149Z,101140
2022-09-17T04:18:00.171Z,101150
2022-09-17T04:19:00.400Z,101150
2022-09-17T04:20:00.267Z,101160
2022-09-17T04:21:00.215Z,101160
2022-09-17T04:22:00.156Z,101160
2022-09-17T04:23:00.155Z,101160
2022-09-17T04:24:00.232Z,101160
2022-09-17T04:25:00.177Z,101160
2022-09-17T04:26:00.435Z,101160
2022-09-17T04:27:00.141Z,101160
2022-09-17T04:28:00.234Z,101170
2022-09-17T04:29:00.155Z,101170
2022-09-17T04:30:00.159Z,101170
2022-09-17T04:31:00.233Z,101170
2022-09-17T04:32:00.240Z,101170
2022-09-17T04:33:00.191Z,101170
2022-09-17T04:34:00.267Z,101170
2022-09-17T04:35:00.200Z,101170
2022-09-17T04:36:00.235Z,101170
2022-09-17T04:37:00.149Z,101170
2022-09-17T04:38:00.445Z,101170
2022-09-17T04:39:00.157Z,101170
2022-09-17T04:40:02.098Z,101170
2022-09-17T04:41:00.160Z,101170
2022-09-17T04:42:00.192Z,101170
2022-09-17T04:43:00.207Z,101170
2022-09-17T04:44:00.230Z,101170
2022-09-17T04:45:00.165Z,101170
2022-09-17T04:46:00.147Z,101170
2022-09-17T04:47:00.207Z,101170
2022-09-17T04:48:00.275Z,101170
2022-09-17T04:49:00.219Z,101170
2022-09-17T04:50:00.164Z,101170
2022-09-17T04:51:00.154Z,101170
2022-09-17T04:52:00.266Z,101170
2022-09-17T04:53:00.157Z,101170
2022-09-17T04:54:00.199Z,101170
2022-09-17T04:55:00.151Z,101170
2022-09-17T04:56:00.334Z,101170
2022-09-17T04:57:00.177Z,101170
2022-09-17T04:58:00.202Z,101170
2022-09-17T04:59:00.148Z,101170
2022-09-17T05:00:00.288Z,101170
2022-09-17T05:01:00.273Z,101170
2022-09-17T05:03:00.216Z,101180
2022-09-17T05:04:00.444Z,101180
2022-09-17T05:05:00.153Z,101180
2022-09-17T05:06:00.163Z,101170
2022-09-17T05:07:00.154Z,101170
2022-09-17T05:08:00.240Z,101170
2022-09-17T05:09:00.148Z,101170
2022-09-17T05:10:00.169Z,101170
2022-09-17T05:11:00.190Z,101170
2022-09-17T05:12:00.222Z,101170
2022-09-17T05:13:00.146Z,101170
2022-09-17T05:14:00.159Z,101170
2022-09-17T05:15:00.235Z,101170
2022-09-17T05:16:00.292Z,101180
2022-09-17T05:17:00.147Z,101180
2022-09-17T05:18:00.156Z,101180
2022-09-17T05:19:00.234Z,101180
2022-09-17T05:20:00.239Z,101190
2022-09-17T05:21:00.165Z,101190
2022-09-17T05:22:00.151Z,101190
2022-09-17T05:23:00.140Z,101190
2022-09-17T05:24:00.224Z,101190
2022-09-17T05:25:00.153Z,101190
2022-09-17T05:26:00.242Z,101190
2022-09-17T05:27:00.167Z,101190
2022-09-17T05:28:00.234Z,101190
2022-09-17T05:29:00.410Z,101190
2022-09-17T05:30:00.168Z,101200
2022-09-17T05:31:00.903Z,101200
2022-09-17T05:32:00.200Z,101200
2022-09-17T05:33:01.429Z,101200
2022-09-17T05:34:00.165Z,101200
2022-09-17T05:35:04.781Z,101200
2022-09-17T05:36:00.253Z,101200
2022-09-17T05:37:00.150Z,101200
2022-09-17T05:38:00.970Z,101190
2022-09-17T05:39:00.149Z,101190
2022-09-17T05:40:00.412Z,101200
2022-09-17T05:41:02.743Z,101200
2022-09-17T05:42:00.149Z,101200
2022-09-17T05:43:01.530Z,101200
2022-09-17T05:44:00.244Z,101200
2022-09-17T05:45:00.162Z,101200
2022-09-17T05:46:01.917Z,101200
2022-09-17T05:47:00.271Z,101200
2022-09-17T05:48:00.856Z,101200
2022-09-17T05:49:00.136Z,101200
2022-09-17T05:50:00.193Z,101200
2022-09-17T05:51:00.139Z,101200
2022-09-17T05:52:00.243Z,101200
2022-09-17T05:53:09.953Z,101200
2022-09-17T05:54:00.167Z,101200
2022-09-17T05:55:00.167Z,101200
2022-09-17T05:56:00.258Z,101200
2022-09-17T05:57:00.145Z,101200
2022-09-17T05:58:00.177Z,101210
2022-09-17T05:59:00.244Z,101210
2022-09-17T06:00:00.288Z,101210
2022-09-17T06:01:00.345Z,101210
2022-09-17T06:02:00.330Z,101210
2022-09-17T06:03:00.191Z,101210
2022-09-17T06:04:00.269Z,101210
2022-09-17T06:05:00.157Z,101210
2022-09-17T06:06:00.153Z,101220
2022-09-17T06:07:02.612Z,101220
2022-09-17T06:08:00.237Z,101220
2022-09-17T06:09:00.205Z,101220
2022-09-17T06:10:00.188Z,101230
2022-09-17T06:11:03.008Z,101230
2022-09-17T06:12:00.186Z,101230
2022-09-17T06:13:00.150Z,101230
2022-09-17T06:14:00.263Z,101230
2022-09-17T06:15:00.427Z,101230
2022-09-17T06:16:01.097Z,101230
2022-09-17T06:17:00.141Z,101230
2022-09-17T06:18:00.158Z,101230
2022-09-17T06:19:00.213Z,101230
2022-09-17T06:20:00.411Z,101230
2022-09-17T06:21:01.296Z,101230
2022-09-17T06:22:00.151Z,101240
2022-09-17T06:23:00.147Z,101240
2022-09-17T06:24:00.235Z,101240
2022-09-17T06:25:00.155Z,101240
2022-09-17T06:26:00.736Z,101240
2022-09-17T06:27:00.187Z,101240
2022-09-17T06:28:01.707Z,101230
2022-09-17T06:29:00.271Z,101230
2022-09-17T06:30:00.361Z,101230
2022-09-17T06:31:01.254Z,101230
2022-09-17T06:32:00.211Z,101230
2022-09-17T06:33:00.148Z,101230
2022-09-17T06:34:01.658Z,101230
2022-09-17T06:35:00.149Z,101230
2022-09-17T06:36:01.356Z,101230
2022-09-17T06:37:00.147Z,101230
2022-09-17T06:38:02.691Z,101230
2022-09-17T06:39:00.225Z,101230
2022-09-17T06:40:00.422Z,101230
2022-09-17T06:41:00.552Z,101230
2022-09-17T06:42:00.141Z,101230
2022-09-17T06:43:00.153Z,101230
2022-09-17T06:44:00.417Z,101230
2022-09-17T06:45:04.150Z,101230
2022-09-17T06:46:01.125Z,101230
2022-09-17T06:47:00.260Z,101230
2022-09-17T06:48:02.574Z,101230
2022-09-17T06:49:00.151Z,101230
2022-09-17T06:50:00.175Z,101230
2022-09-17T06:51:01.287Z,101230
2022-09-17T06:52:00.244Z,101230
2022-09-17T06:53:00.181Z,101230
2022-09-17T06:54:00.512Z,101230
2022-09-17T06:55:00.158Z,101230
2022-09-17T06:56:05.180Z,101240
2022-09-17T06:57:00.146Z,101240
2022-09-17T06:58:00.154Z,101240
2022-09-17T06:59:00.321Z,101240
2022-09-17T07:00:00.263Z,101230
2022-09-17T07:01:00.317Z,101230
2022-09-17T07:02:00.237Z,101240
2022-09-17T07:03:00.201Z,101240
2022-09-17T07:04:00.230Z,101240
2022-09-17T07:05:00.409Z,101240
2022-09-17T07:06:00.175Z,101240
2022-09-17T07:07:00.146Z,101240
2022-09-17T07:08:01.264Z,101240
2022-09-17T07:09:00.151Z,101240
2022-09-17T07:10:00.697Z,101240
2022-09-17T07:11:00.169Z,101240
2022-09-17T07:12:00.220Z,101240
2022-09-17T07:13:00.146Z,101240
2022-09-17T07:14:00.212Z,101240
2022-09-17T07:15:00.157Z,101240
2022-09-17T07:16:01.431Z,101240
2022-09-17T07:17:00.171Z,101240
2022-09-17T07:18:06.481Z,101240
2022-09-17T07:19:01.101Z,101240
2022-09-17T07:20:00.295Z,101240
2022-09-17T07:21:01.254Z,101240
2022-09-17T07:22:00.153Z,101240
2022-09-17T07:23:00.249Z,101240
2022-09-17T07:24:00.253Z,101250
2022-09-17T07:25:00.302Z,101250
2022-09-17T07:26:01.583Z,101240
2022-09-17T07:27:00.647Z,101240
2022-09-17T07:32:00.200Z,101250
2022-09-17T07:33:00.560Z,101250
2022-09-17T07:34:00.159Z,101250
2022-09-17T07:35:00.150Z,101240
2022-09-17T07:36:01.480Z,101240
2022-09-17T07:37:00.146Z,101250
2022-09-17T07:38:00.158Z,101250
2022-09-17T07:39:00.215Z,101250
2022-09-17T07:40:00.346Z,101250
2022-09-17T07:41:04.179Z,101250
2022-09-17T07:42:00.142Z,101250
2022-09-17T07:43:00.157Z,101250
2022-09-17T07:44:00.252Z,101250
2022-09-17T07:45:02.112Z,101250
2022-09-17T07:46:01.440Z,101250
2022-09-17T07:47:00.199Z,101250
2022-09-17T07:48:00.210Z,101250
2022-09-17T07:51:00.272Z,101240
2022-09-17T07:52:00.196Z,101240
2022-09-17T07:53:00.156Z,101240
2022-09-17T07:54:00.164Z,101240
2022-09-17T07:55:00.202Z,101240
2022-09-17T07:56:00.644Z,101240
2022-09-17T07:57:00.149Z,101240
2022-09-17T07:58:00.181Z,101240
2022-09-17T07:59:01.359Z,101240
2022-09-17T08:01:04.406Z,101240
2022-09-17T08:02:00.327Z,101240
2022-09-17T08:03:00.208Z,101250
2022-09-17T08:04:00.239Z,101250
2022-09-17T08:06:06.682Z,101240
2022-09-17T08:08:00.247Z,101240
2022-09-17T08:09:00.142Z,101250
2022-09-17T08:10:00.174Z,101250
2022-09-17T08:19:00.166Z,101260
2022-09-17T08:20:00.224Z,101260
2022-09-17T08:22:00.398Z,101260
2022-09-17T08:23:00.153Z,101250
2022-09-17T08:24:00.267Z,101250
2022-09-17T08:43:01.527Z,101260
2022-09-17T08:44:00.249Z,101260
2022-09-17T08:45:01.946Z,101260
2022-09-17T08:46:00.187Z,101260
2022-09-17T08:47:02.506Z,101260
2022-09-17T08:48:01.786Z,101260
2022-09-17T08:49:06.875Z,101260
2022-09-17T08:50:01.406Z,101260
2022-09-17T08:51:08.486Z,101260
2022-09-17T08:52:08.598Z,101260
2022-09-17T08:53:10.085Z,101250
2022-09-17T08:54:01.137Z,101250
2022-09-17T08:55:10.102Z,101250
2022-09-17T08:56:06.100Z,101250
2022-09-17T08:57:10.096Z,101250
2022-09-17T08:58:10.107Z,101250
2022-09-17T08:59:06.944Z,101250
2022-09-17T09:00:10.102Z,101250
2022-09-17T09:01:00.137Z,101250
2022-09-17T09:02:10.190Z,101250
2022-09-17T09:03:09.615Z,101250
2022-09-17T09:04:08.970Z,101250
2022-09-17T09:05:03.390Z,101250
2022-09-17T09:06:00.412Z,101250
2022-09-17T09:07:03.659Z,101260
2022-09-17T09:08:05.313Z,101260
2022-09-17T09:09:02.054Z,101260
2022-09-17T09:10:05.344Z,101260
2022-09-17T09:11:01.845Z,101260
2022-09-17T09:12:03.496Z,101260
2022-09-17T09:13:00.264Z,101260
2022-09-17T09:14:10.094Z,101260
2022-09-17T09:15:01.745Z,101260
2022-09-17T09:16:02.617Z,101260
2022-09-17T09:17:04.048Z,101260
2022-09-17T09:18:08.273Z,101260
2022-09-17T09:19:05.110Z,101260
2022-09-17T09:20:00.245Z,101260
2022-09-17T09:21:10.088Z,101250
2022-09-17T09:22:03.354Z,101250
2022-09-17T09:23:06.490Z,101250
2022-09-17T09:24:07.062Z,101250
2022-09-17T09:25:10.103Z,101250
2022-09-17T09:26:10.094Z,101250
2022-09-17T09:27:00.139Z,101250
2022-09-17T09:28:03.400Z,101250
2022-09-17T09:29:10.092Z,101250
2022-09-17T09:30:05.363Z,101250
2022-09-17T09:31:03.424Z,101240
2022-09-17T09:32:15.556Z,101240
2022-09-17T09:33:08.454Z,101250
2022-09-17T09:34:01.499Z,101250
2022-09-17T09:35:02.283Z,101250
2022-09-17T09:36:00.393Z,101250
2022-09-17T09:37:10.087Z,101250
2022-09-17T09:38:10.086Z,101250
2022-09-17T09:39:02.211Z,101260
2022-09-17T09:40:05.739Z,101260
2022-09-17T09:41:07.269Z,101270
2022-09-17T09:42:08.153Z,101270
2022-09-17T09:43:02.053Z,101270
2022-09-17T09:44:12.489Z,101270
2022-09-17T09:45:10.095Z,101280
2022-09-17T09:46:00.131Z,101280
2022-09-17T09:47:10.087Z,101280
2022-09-17T09:48:03.472Z,101280
2022-09-17T09:49:10.089Z,101290
2022-09-17T09:50:00.149Z,101290
2022-09-17T09:51:09.969Z,101290
2022-09-17T09:52:08.404Z,101290
2022-09-17T09:53:10.097Z,101290
2022-09-17T09:54:10.087Z,101290
2022-09-17T09:55:03.390Z,101290
2022-09-17T09:56:05.340Z,101290
2022-09-17T09:57:03.194Z,101290
2022-09-17T09:58:04.799Z,101290
2022-09-17T09:59:00.465Z,101280
2022-09-17T10:00:10.096Z,101280
2022-09-17T10:01:00.206Z,101280
2022-09-17T10:02:00.352Z,101280
2022-09-17T10:03:10.088Z,101280
2022-09-17T10:04:00.227Z,101280
2022-09-17T10:05:07.363Z,101280
2022-09-17T10:06:01.524Z,101280
2022-09-17T10:07:01.143Z,101280
2022-09-17T10:08:09.399Z,101280
2022-09-17T10:09:00.130Z,101280
2022-09-17T10:10:07.154Z,101280
2022-09-17T10:11:01.330Z,101280
2022-09-17T10:12:00.178Z,101280
2022-09-17T10:13:04.368Z,101280
2022-09-17T10:14:10.094Z,101280
2022-09-17T10:15:10.097Z,101270
2022-09-17T10:16:10.161Z,101270
2022-09-17T10:17:10.089Z,101270
2022-09-17T10:18:10.087Z,101270
2022-09-17T10:19:01.142Z,101270
2022-09-17T10:20:01.140Z,101270
2022-09-17T10:21:00.240Z,101260
2022-09-17T10:22:10.089Z,101260
2022-09-17T10:23:04.890Z,101260
2022-09-17T10:24:01.580Z,101260
2022-09-17T10:25:00.978Z,101260
2022-09-17T10:26:00.202Z,101260
2022-09-17T10:27:01.484Z,101260
2022-09-17T10:28:02.444Z,101260
2022-09-17T10:29:02.359Z,101260
2022-09-17T10:30:07.585Z,101260
2022-09-17T10:31:06.343Z,101260
2022-09-17T10:32:00.409Z,101260
2022-09-17T10:33:10.086Z,101260
2022-09-17T10:34:01.254Z,101260
2022-09-17T10:35:05.053Z,101250
2022-09-17T10:36:00.138Z,101250
2022-09-17T10:37:00.166Z,101250
2022-09-17T10:38:00.157Z,101250
2022-09-17T10:39:10.086Z,101260
2022-09-17T10:40:00.362Z,101260
2022-09-17T10:41:10.092Z,101270
2022-09-17T10:42:00.131Z,101270
2022-09-17T10:43:10.091Z,101260
2022-09-17T10:44:10.097Z,101260
2022-09-17T10:45:00.161Z,101260
2022-09-17T10:46:00.159Z,101260
2022-09-17T10:47:03.362Z,101260
2022-09-17T10:48:00.267Z,101260
2022-09-17T10:49:09.602Z,101250
2022-09-17T10:50:10.091Z,101250
2022-09-17T10:51:00.772Z,101250
2022-09-17T10:52:04.822Z,101250
2022-09-17T10:53:04.655Z,101250
2022-09-17T10:54:00.139Z,101250
2022-09-17T10:55:01.148Z,101250
2022-09-17T10:56:00.131Z,101250
2022-09-17T10:57:00.788Z,101260
2022-09-17T10:58:03.404Z,101260
2022-09-17T10:59:08.610Z,101250
2022-09-17T11:00:06.587Z,101250
2022-09-17T11:01:09.381Z,101250
2022-09-17T11:02:01.200Z,101250
2022-09-17T11:03:09.945Z,101240
2022-09-17T11:04:00.125Z,101240
2022-09-17T11:05:10.094Z,101240
2022-09-17T11:06:03.396Z,101240
2022-09-17T11:07:00.135Z,101240
2022-09-17T11:11:03.413Z,101240
2022-09-17T11:12:10.106Z,101240
2022-09-17T11:13:00.137Z,101240
2022-09-17T11:14:09.321Z,101240
2022-09-17T11:15:10.110Z,101240
2022-09-17T11:16:10.160Z,101240
2022-09-17T11:17:06.912Z,101230
2022-09-17T11:18:07.575Z,101230
2022-09-17T11:19:10.089Z,101230
2022-09-17T11:20:10.102Z,101230
2022-09-17T11:22:10.089Z,101230
2022-09-17T11:23:10.095Z,101230
2022-09-17T11:24:10.089Z,101230
2022-09-17T11:25:03.375Z,101230
2022-09-17T11:26:04.853Z,101230
2022-09-17T11:27:00.133Z,101230
2022-09-17T11:28:04.827Z,101230
2022-09-17T11:29:10.088Z,101230
2022-09-17T11:30:00.161Z,101230
2022-09-17T11:31:10.135Z,101240
2022-09-17T11:32:00.311Z,101240
2022-09-17T11:33:10.090Z,101240
2022-09-17T11:34:00.143Z,101240
2022-09-17T11:35:05.681Z,101230
2022-09-17T11:36:02.643Z,101230
2022-09-17T11:37:10.092Z,101230
2022-09-17T11:38:04.042Z,101230
2022-09-17T11:39:08.600Z,101230
2022-09-17T11:40:10.161Z,101230
2022-09-17T11:42:01.706Z,101230
2022-09-17T11:43:03.256Z,101220
2022-09-17T11:44:07.435Z,101220
2022-09-17T11:45:03.237Z,101230
2022-09-17T11:46:10.167Z,101230
2022-09-17T11:47:07.603Z,101230
2022-09-17T11:48:04.322Z,101230
2022-09-17T11:49:03.768Z,101220
2022-09-17T11:50:03.674Z,101220
2022-09-17T11:51:10.091Z,101230
2022-09-17T11:54:00.137Z,101220
2022-09-17T11:55:10.090Z,101210
2022-09-17T11:56:04.730Z,101210
2022-09-17T11:57:01.141Z,101210
2022-09-17T11:58:08.673Z,101210
2022-09-17T11:59:04.787Z,101210
2022-09-17T12:00:03.636Z,101210
2022-09-17T12:01:03.008Z,101210
2022-09-17T12:02:03.526Z,101210
2022-09-17T12:03:00.177Z,101210
2022-09-17T12:04:10.093Z,101210
2022-09-17T12:05:04.070Z,101200
2022-09-17T12:06:04.773Z,101200
2022-09-17T12:07:10.089Z,101200
2022-09-17T12:08:12.435Z,101200
2022-09-17T12:09:03.676Z,101200
2022-09-17T12:10:10.100Z,101200
2022-09-17T12:11:06.244Z,101200
2022-09-17T12:12:04.626Z,101200
2022-09-17T12:13:10.092Z,101200
2022-09-17T12:14:08.439Z,101200
2022-09-17T12:15:04.827Z,101190
2022-09-17T12:16:10.146Z,101190
2022-09-17T12:17:01.860Z,101180
2022-09-17T12:18:31.074Z,101180
2022-09-17T12:19:03.442Z,101190
2022-09-17T12:20:04.903Z,101190
2022-09-17T12:21:02.000Z,101190
2022-09-17T12:22:10.091Z,101190
2022-09-17T12:23:02.399Z,101190
2022-09-17T12:24:10.089Z,101190
2022-09-17T12:25:01.059Z,101190
2022-09-17T12:26:07.392Z,101190
2022-09-17T12:27:01.165Z,101190
2022-09-17T12:28:07.292Z,101190
2022-09-17T12:29:10.089Z,101190
2022-09-17T12:30:09.557Z,101190
2022-09-17T12:31:05.075Z,101190
2022-09-17T12:32:10.098Z,101190
2022-09-17T12:33:00.138Z,101190
2022-09-17T12:34:07.474Z,101190
2022-09-17T12:35:08.961Z,101190
2022-09-17T12:36:10.096Z,101190
2022-09-17T12:37:10.094Z,101190
2022-09-17T12:38:10.089Z,101190
2022-09-17T12:39:08.525Z,101190
2022-09-17T12:40:07.833Z,101190
2022-09-17T12:41:10.092Z,101190
2022-09-17T12:42:00.173Z,101190
2022-09-17T12:43:03.407Z,101200
2022-09-17T12:44:10.088Z,101200
2022-09-17T12:45:00.153Z,101190
2022-09-17T12:46:10.135Z,101190
2022-09-17T12:47:00.202Z,101180
2022-09-17T12:48:10.091Z,101180
2022-09-17T12:49:08.192Z,101190
2022-09-17T12:50:04.528Z,101190
2022-09-17T12:51:00.134Z,101190
2022-09-17T12:52:04.540Z,101190
2022-09-17T12:53:10.093Z,101180
2022-09-17T12:54:09.583Z,101180
2022-09-17T12:55:10.105Z,101190
2022-09-17T12:56:04.458Z,101190
2022-09-17T12:57:10.105Z,101180
2022-09-17T12:58:10.093Z,101180
2022-09-17T12:59:04.614Z,101170
2022-09-17T13:00:05.401Z,101170
2022-09-17T13:01:05.738Z,101180
2022-09-17T13:02:00.243Z,101180
2022-09-17T13:03:09.280Z,101180
2022-09-17T13:04:10.099Z,101180
2022-09-17T13:05:10.090Z,101180
2022-09-17T13:06:10.093Z,101180
2022-09-17T13:07:03.374Z,101180
2022-09-17T13:08:10.086Z,101180
2022-09-17T13:09:01.135Z,101180
2022-09-17T13:31:00.847Z,101190
2022-09-17T13:32:00.203Z,101180
2022-09-17T13:33:00.177Z,101180